sensor_id;sensor_type;location;lat;lon;timestamp;temperature;humidity
55173;DHT22;41061;52.822;6.860;2022-10-16T00:01:22;12.50;99.90
55173;DHT22;41061;52.822;6.860;2022-10-16T00:03:49;12.50;99.90
55173;DHT22;41061;52.822;6.860;2022-10-16T00:06:17;12.50;99.90
55173;DHT22;41061;52.822;6.860;2022-10-16T00:08:43;12.50;99.90
55173;DHT22;41061;52.822;6.860;2022-10-16T00:14:14;12.50;99.90
55173;DHT22;41061;52.822;6.860;2022-10-16T00:16:41;12.50;99.90
55173;DHT22;41061;52.822;6.860;2022-10-16T00:19:07;12.50;99.90
55173;DHT22;41061;52.822;6.860;2022-10-16T00:21:33;12.60;99.90
55173;DHT22;41061;52.822;6.860;2022-10-16T00:24:03;12.60;99.90
55173;DHT22;41061;52.822;6.860;2022-10-16T00:26:32;12.60;99.90
55173;DHT22;41061;52.822;6.860;2022-10-16T00:28:58;12.60;99.90
55173;DHT22;41061;52.822;6.860;2022-10-16T00:31:24;12.60;99.90
55173;DHT22;41061;52.822;6.860;2022-10-16T00:33:50;12.60;99.90
55173;DHT22;41061;52.822;6.860;2022-10-16T00:36:19;12.60;99.90
55173;DHT22;41061;52.822;6.860;2022-10-16T00:38:45;12.60;99.90
55173;DHT22;41061;52.822;6.860;2022-10-16T00:41:14;12.60;99.90
55173;DHT22;41061;52.822;6.860;2022-10-16T00:43:44;12.60;99.90
55173;DHT22;41061;52.822;6.860;2022-10-16T00:49:00;12.60;99.90
55173;DHT22;41061;52.822;6.860;2022-10-16T00:51:39;12.60;99.90
55173;DHT22;41061;52.822;6.860;2022-10-16T00:54:10;12.50;99.90
55173;DHT22;41061;52.822;6.860;2022-10-16T00:56:37;12.50;99.90
55173;DHT22;41061;52.822;6.860;2022-10-16T00:59:10;12.50;99.90
55173;DHT22;41061;52.822;6.860;2022-10-16T01:01:37;12.50;99.90
55173;DHT22;41061;52.822;6.860;2022-10-16T01:04:02;12.50;99.90
55173;DHT22;41061;52.822;6.860;2022-10-16T01:06:37;12.40;99.90
55173;DHT22;41061;52.822;6.860;2022-10-16T01:09:13;12.40;99.90
55173;DHT22;41061;52.822;6.860;2022-10-16T01:12:16;12.40;99.90
55173;DHT22;41061;52.822;6.860;2022-10-16T01:14:43;12.40;99.90
55173;DHT22;41061;52.822;6.860;2022-10-16T01:17:34;12.30;99.90
55173;DHT22;41061;52.822;6.860;2022-10-16T01:20:10;12.30;99.90
55173;DHT22;41061;52.822;6.860;2022-10-16T01:22:59;12.30;99.90
55173;DHT22;41061;52.822;6.860;2022-10-16T01:28:48;12.20;99.90
55173;DHT22;41061;52.822;6.860;2022-10-16T01:31:18;12.20;99.90
55173;DHT22;41061;52.822;6.860;2022-10-16T01:33:49;12.20;99.90
55173;DHT22;41061;52.822;6.860;2022-10-16T01:36:25;12.20;99.90
55173;DHT22;41061;52.822;6.860;2022-10-16T01:38:56;12.20;99.90
55173;DHT22;41061;52.822;6.860;2022-10-16T01:41:32;12.10;99.90
55173;DHT22;41061;52.822;6.860;2022-10-16T01:44:02;12.10;99.90
55173;DHT22;41061;52.822;6.860;2022-10-16T01:46:30;12.20;99.90
55173;DHT22;41061;52.822;6.860;2022-10-16T01:48:57;12.10;99.90
55173;DHT22;41061;52.822;6.860;2022-10-16T01:51:25;12.10;99.90
55173;DHT22;41061;52.822;6.860;2022-10-16T01:53:54;12.20;99.90
55173;DHT22;41061;52.822;6.860;2022-10-16T01:56:22;12.20;99.90
55173;DHT22;41061;52.822;6.860;2022-10-16T01:58:53;12.10;99.90
55173;DHT22;41061;52.822;6.860;2022-10-16T02:01:23;12.10;99.90
55173;DHT22;41061;52.822;6.860;2022-10-16T02:03:53;12.10;99.90
55173;DHT22;41061;52.822;6.860;2022-10-16T02:06:20;12.10;99.90
55173;DHT22;41061;52.822;6.860;2022-10-16T02:08:46;12.20;99.90
55173;DHT22;41061;52.822;6.860;2022-10-16T02:11:12;12.10;99.90
55173;DHT22;41061;52.822;6.860;2022-10-16T02:13:44;12.10;99.90
55173;DHT22;41061;52.822;6.860;2022-10-16T02:16:12;12.10;99.90
55173;DHT22;41061;52.822;6.860;2022-10-16T02:18:39;12.20;99.90
55173;DHT22;41061;52.822;6.860;2022-10-16T02:21:19;12.20;99.90
55173;DHT22;41061;52.822;6.860;2022-10-16T02:26:42;12.20;99.90
55173;DHT22;41061;52.822;6.860;2022-10-16T02:29:12;12.20;99.90
55173;DHT22;41061;52.822;6.860;2022-10-16T02:31:42;12.20;99.90
55173;DHT22;41061;52.822;6.860;2022-10-16T02:34:11;12.30;99.90
55173;DHT22;41061;52.822;6.860;2022-10-16T02:36:39;12.30;99.90
55173;DHT22;41061;52.822;6.860;2022-10-16T02:39:05;12.30;99.90
55173;DHT22;41061;52.822;6.860;2022-10-16T02:41:32;12.30;99.90
55173;DHT22;41061;52.822;6.860;2022-10-16T02:43:58;12.30;99.90
55173;DHT22;41061;52.822;6.860;2022-10-16T02:46:24;12.30;99.90
55173;DHT22;41061;52.822;6.860;2022-10-16T02:48:49;12.30;99.90
55173;DHT22;41061;52.822;6.860;2022-10-16T02:51:15;12.40;99.90
55173;DHT22;41061;52.822;6.860;2022-10-16T02:53:41;12.40;99.90
55173;DHT22;41061;52.822;6.860;2022-10-16T02:56:06;12.40;99.90
55173;DHT22;41061;52.822;6.860;2022-10-16T02:58:32;12.40;99.90
55173;DHT22;41061;52.822;6.860;2022-10-16T03:00:58;12.50;99.90
55173;DHT22;41061;52.822;6.860;2022-10-16T03:03:24;12.50;99.90
55173;DHT22;41061;52.822;6.860;2022-10-16T03:05:49;12.50;99.90
55173;DHT22;41061;52.822;6.860;2022-10-16T03:08:15;12.50;99.90
55173;DHT22;41061;52.822;6.860;2022-10-16T03:10:41;12.50;99.90
55173;DHT22;41061;52.822;6.860;2022-10-16T03:13:07;12.60;99.90
55173;DHT22;41061;52.822;6.860;2022-10-16T03:15:32;12.60;99.90
55173;DHT22;41061;52.822;6.860;2022-10-16T03:17:58;12.60;99.90
55173;DHT22;41061;52.822;6.860;2022-10-16T03:20:24;12.60;99.90
55173;DHT22;41061;52.822;6.860;2022-10-16T03:22:50;12.60;99.90
55173;DHT22;41061;52.822;6.860;2022-10-16T03:25:16;12.70;99.90
55173;DHT22;41061;52.822;6.860;2022-10-16T03:27:42;12.70;99.90
55173;DHT22;41061;52.822;6.860;2022-10-16T03:30:08;12.60;99.90
55173;DHT22;41061;52.822;6.860;2022-10-16T03:32:34;12.70;99.90
55173;DHT22;41061;52.822;6.860;2022-10-16T03:34:59;12.70;99.90
55173;DHT22;41061;52.822;6.860;2022-10-16T03:37:25;12.70;99.90
55173;DHT22;41061;52.822;6.860;2022-10-16T03:39:51;12.80;99.90
55173;DHT22;41061;52.822;6.860;2022-10-16T03:42:17;12.80;99.90
55173;DHT22;41061;52.822;6.860;2022-10-16T03:44:43;12.80;99.90
55173;DHT22;41061;52.822;6.860;2022-10-16T03:47:08;13.00;99.90
55173;DHT22;41061;52.822;6.860;2022-10-16T03:49:34;12.80;99.90
55173;DHT22;41061;52.822;6.860;2022-10-16T03:52:00;12.90;99.90
55173;DHT22;41061;52.822;6.860;2022-10-16T03:54:25;12.90;99.90
55173;DHT22;41061;52.822;6.860;2022-10-16T03:56:51;12.80;99.90
55173;DHT22;41061;52.822;6.860;2022-10-16T03:59:17;12.80;99.90
55173;DHT22;41061;52.822;6.860;2022-10-16T04:01:42;12.80;99.90
55173;DHT22;41061;52.822;6.860;2022-10-16T04:04:08;12.80;99.90
55173;DHT22;41061;52.822;6.860;2022-10-16T04:06:34;12.80;99.90
55173;DHT22;41061;52.822;6.860;2022-10-16T04:08:59;12.80;99.90
55173;DHT22;41061;52.822;6.860;2022-10-16T04:11:25;12.80;99.90
55173;DHT22;41061;52.822;6.860;2022-10-16T04:13:51;12.80;99.90
55173;DHT22;41061;52.822;6.860;2022-10-16T04:16:16;12.80;99.90
55173;DHT22;41061;52.822;6.860;2022-10-16T04:18:42;12.80;99.90
55173;DHT22;41061;52.822;6.860;2022-10-16T04:21:08;12.80;99.90
55173;DHT22;41061;52.822;6.860;2022-10-16T04:23:34;12.70;99.90
55173;DHT22;41061;52.822;6.860;2022-10-16T04:26:00;12.80;99.90
55173;DHT22;41061;52.822;6.860;2022-10-16T04:28:26;12.80;99.90
55173;DHT22;41061;52.822;6.860;2022-10-16T04:30:52;12.70;99.90
55173;DHT22;41061;52.822;6.860;2022-10-16T04:33:18;12.70;99.90
55173;DHT22;41061;52.822;6.860;2022-10-16T04:35:43;12.70;99.90
55173;DHT22;41061;52.822;6.860;2022-10-16T04:38:09;12.70;99.90
55173;DHT22;41061;52.822;6.860;2022-10-16T04:40:35;12.70;99.90
55173;DHT22;41061;52.822;6.860;2022-10-16T04:43:04;12.60;99.90
55173;DHT22;41061;52.822;6.860;2022-10-16T04:45:31;12.60;99.90
55173;DHT22;41061;52.822;6.860;2022-10-16T04:47:58;12.60;99.90
55173;DHT22;41061;52.822;6.860;2022-10-16T04:50:23;12.70;99.90
55173;DHT22;41061;52.822;6.860;2022-10-16T04:52:49;12.70;99.90
55173;DHT22;41061;52.822;6.860;2022-10-16T04:55:15;12.70;99.90
55173;DHT22;41061;52.822;6.860;2022-10-16T04:57:41;12.70;99.90
55173;DHT22;41061;52.822;6.860;2022-10-16T05:00:07;12.70;99.90
55173;DHT22;41061;52.822;6.860;2022-10-16T05:02:33;12.70;99.90
55173;DHT22;41061;52.822;6.860;2022-10-16T05:04:59;12.60;99.90
55173;DHT22;41061;52.822;6.860;2022-10-16T05:07:25;12.70;99.90
55173;DHT22;41061;52.822;6.860;2022-10-16T05:09:50;12.70;99.90
55173;DHT22;41061;52.822;6.860;2022-10-16T05:12:16;12.70;99.90
55173;DHT22;41061;52.822;6.860;2022-10-16T05:14:42;12.70;99.90
55173;DHT22;41061;52.822;6.860;2022-10-16T05:17:08;12.70;99.90
55173;DHT22;41061;52.822;6.860;2022-10-16T05:19:33;12.70;99.90
55173;DHT22;41061;52.822;6.860;2022-10-16T05:21:59;12.70;99.90
55173;DHT22;41061;52.822;6.860;2022-10-16T05:24:25;12.60;99.90
55173;DHT22;41061;52.822;6.860;2022-10-16T05:26:51;12.60;99.90
55173;DHT22;41061;52.822;6.860;2022-10-16T05:29:17;12.60;99.90
55173;DHT22;41061;52.822;6.860;2022-10-16T05:31:42;12.60;99.90
55173;DHT22;41061;52.822;6.860;2022-10-16T05:34:08;12.60;99.90
55173;DHT22;41061;52.822;6.860;2022-10-16T05:36:34;12.60;99.90
55173;DHT22;41061;52.822;6.860;2022-10-16T05:38:59;12.60;99.90
55173;DHT22;41061;52.822;6.860;2022-10-16T05:41:25;12.60;99.90
55173;DHT22;41061;52.822;6.860;2022-10-16T05:43:52;12.50;99.90
55173;DHT22;41061;52.822;6.860;2022-10-16T05:46:18;12.50;99.90
55173;DHT22;41061;52.822;6.860;2022-10-16T05:48:44;12.50;99.90
55173;DHT22;41061;52.822;6.860;2022-10-16T05:51:11;12.50;99.90
55173;DHT22;41061;52.822;6.860;2022-10-16T05:53:38;12.50;99.90
55173;DHT22;41061;52.822;6.860;2022-10-16T05:56:05;12.50;99.90
55173;DHT22;41061;52.822;6.860;2022-10-16T05:58:33;12.50;99.90
55173;DHT22;41061;52.822;6.860;2022-10-16T06:01:09;12.50;99.90
55173;DHT22;41061;52.822;6.860;2022-10-16T06:03:35;12.50;99.90
55173;DHT22;41061;52.822;6.860;2022-10-16T06:06:15;12.50;99.90
55173;DHT22;41061;52.822;6.860;2022-10-16T06:08:43;12.50;99.90
55173;DHT22;41061;52.822;6.860;2022-10-16T06:11:10;12.50;99.90
55173;DHT22;41061;52.822;6.860;2022-10-16T06:13:37;12.50;99.90
55173;DHT22;41061;52.822;6.860;2022-10-16T06:16:03;12.50;99.90
55173;DHT22;41061;52.822;6.860;2022-10-16T06:18:29;12.50;99.90
55173;DHT22;41061;52.822;6.860;2022-10-16T06:20:56;12.50;99.90
55173;DHT22;41061;52.822;6.860;2022-10-16T06:23:22;12.60;99.90
55173;DHT22;41061;52.822;6.860;2022-10-16T06:25:48;12.50;99.90
55173;DHT22;41061;52.822;6.860;2022-10-16T06:28:15;12.60;99.90
55173;DHT22;41061;52.822;6.860;2022-10-16T06:30:41;12.60;99.90
55173;DHT22;41061;52.822;6.860;2022-10-16T06:33:09;12.60;99.90
55173;DHT22;41061;52.822;6.860;2022-10-16T06:35:35;12.60;99.90
55173;DHT22;41061;52.822;6.860;2022-10-16T06:38:01;12.60;99.90
55173;DHT22;41061;52.822;6.860;2022-10-16T06:40:27;12.70;99.90
55173;DHT22;41061;52.822;6.860;2022-10-16T06:42:55;12.70;99.90
55173;DHT22;41061;52.822;6.860;2022-10-16T06:45:21;12.80;99.90
55173;DHT22;41061;52.822;6.860;2022-10-16T06:47:46;12.80;99.90
55173;DHT22;41061;52.822;6.860;2022-10-16T06:50:12;12.90;99.90
55173;DHT22;41061;52.822;6.860;2022-10-16T06:52:38;12.90;99.90
55173;DHT22;41061;52.822;6.860;2022-10-16T06:55:04;12.90;99.90
55173;DHT22;41061;52.822;6.860;2022-10-16T06:57:29;12.90;99.90
55173;DHT22;41061;52.822;6.860;2022-10-16T06:59:55;12.90;99.90
55173;DHT22;41061;52.822;6.860;2022-10-16T07:02:21;12.90;99.90
55173;DHT22;41061;52.822;6.860;2022-10-16T07:04:46;13.00;99.90
55173;DHT22;41061;52.822;6.860;2022-10-16T07:07:12;13.00;99.90
55173;DHT22;41061;52.822;6.860;2022-10-16T07:09:38;13.00;99.90
55173;DHT22;41061;52.822;6.860;2022-10-16T07:12:04;13.00;99.90
55173;DHT22;41061;52.822;6.860;2022-10-16T07:14:29;13.10;99.90
55173;DHT22;41061;52.822;6.860;2022-10-16T07:16:55;13.10;99.90
55173;DHT22;41061;52.822;6.860;2022-10-16T07:19:21;13.10;99.90
55173;DHT22;41061;52.822;6.860;2022-10-16T07:21:46;13.10;99.90
55173;DHT22;41061;52.822;6.860;2022-10-16T07:24:15;13.20;99.90
55173;DHT22;41061;52.822;6.860;2022-10-16T07:26:44;13.20;99.90
55173;DHT22;41061;52.822;6.860;2022-10-16T07:29:19;13.20;99.90
55173;DHT22;41061;52.822;6.860;2022-10-16T07:31:46;13.30;99.90
55173;DHT22;41061;52.822;6.860;2022-10-16T07:34:13;13.40;99.90
55173;DHT22;41061;52.822;6.860;2022-10-16T07:36:39;13.40;99.90
55173;DHT22;41061;52.822;6.860;2022-10-16T07:44:04;13.80;99.90
55173;DHT22;41061;52.822;6.860;2022-10-16T07:48:59;13.60;99.90
55173;DHT22;41061;52.822;6.860;2022-10-16T07:51:26;13.60;99.90
55173;DHT22;41061;52.822;6.860;2022-10-16T07:53:52;13.70;99.90
55173;DHT22;41061;52.822;6.860;2022-10-16T07:58:46;13.80;99.90
55173;DHT22;41061;52.822;6.860;2022-10-16T08:01:14;13.70;99.90
55173;DHT22;41061;52.822;6.860;2022-10-16T08:03:45;14.00;99.90
55173;DHT22;41061;52.822;6.860;2022-10-16T08:06:11;14.00;99.90
55173;DHT22;41061;52.822;6.860;2022-10-16T08:08:37;13.90;99.90
55173;DHT22;41061;52.822;6.860;2022-10-16T08:11:02;14.00;99.90
55173;DHT22;41061;52.822;6.860;2022-10-16T08:13:30;14.00;99.90
55173;DHT22;41061;52.822;6.860;2022-10-16T08:15:56;13.90;99.90
55173;DHT22;41061;52.822;6.860;2022-10-16T08:18:22;14.00;99.90
55173;DHT22;41061;52.822;6.860;2022-10-16T08:20:47;14.10;99.90
55173;DHT22;41061;52.822;6.860;2022-10-16T08:23:13;14.10;99.90
55173;DHT22;41061;52.822;6.860;2022-10-16T08:25:41;14.20;99.90
55173;DHT22;41061;52.822;6.860;2022-10-16T08:58:32;14.80;99.90
55173;DHT22;41061;52.822;6.860;2022-10-16T09:01:00;14.80;99.90
55173;DHT22;41061;52.822;6.860;2022-10-16T09:16:43;15.40;99.90
55173;DHT22;41061;52.822;6.860;2022-10-16T09:26:43;15.70;99.90
55173;DHT22;41061;52.822;6.860;2022-10-16T09:29:13;15.60;99.90
55173;DHT22;41061;52.822;6.860;2022-10-16T09:31:38;15.60;99.90
55173;DHT22;41061;52.822;6.860;2022-10-16T09:34:05;15.80;99.90
55173;DHT22;41061;52.822;6.860;2022-10-16T09:36:42;15.80;99.90
55173;DHT22;41061;52.822;6.860;2022-10-16T09:46:48;16.00;99.90
55173;DHT22;41061;52.822;6.860;2022-10-16T09:49:25;16.20;99.90
55173;DHT22;41061;52.822;6.860;2022-10-16T09:52:10;16.30;99.90
55173;DHT22;41061;52.822;6.860;2022-10-16T09:54:36;16.50;99.90
55173;DHT22;41061;52.822;6.860;2022-10-16T09:57:06;16.50;99.90
55173;DHT22;41061;52.822;6.860;2022-10-16T09:59:32;16.40;99.90
55173;DHT22;41061;52.822;6.860;2022-10-16T10:02:03;16.60;99.90
55173;DHT22;41061;52.822;6.860;2022-10-16T10:04:41;16.60;99.90
55173;DHT22;41061;52.822;6.860;2022-10-16T10:07:26;16.70;99.90
55173;DHT22;41061;52.822;6.860;2022-10-16T10:09:53;16.50;99.90
55173;DHT22;41061;52.822;6.860;2022-10-16T10:12:24;16.50;99.90
55173;DHT22;41061;52.822;6.860;2022-10-16T10:14:52;16.80;99.90
55173;DHT22;41061;52.822;6.860;2022-10-16T10:17:23;16.80;99.90
55173;DHT22;41061;52.822;6.860;2022-10-16T10:19:56;16.80;99.90
55173;DHT22;41061;52.822;6.860;2022-10-16T10:22:39;16.80;99.90
55173;DHT22;41061;52.822;6.860;2022-10-16T10:28:09;16.90;99.90
55173;DHT22;41061;52.822;6.860;2022-10-16T10:34:15;16.80;99.90
55173;DHT22;41061;52.822;6.860;2022-10-16T10:36:35;16.80;99.90
55173;DHT22;41061;52.822;6.860;2022-10-16T10:41:48;16.90;99.90
55173;DHT22;41061;52.822;6.860;2022-10-16T10:53:30;16.90;99.90
55173;DHT22;41061;52.822;6.860;2022-10-16T10:58:51;17.10;99.90
55173;DHT22;41061;52.822;6.860;2022-10-16T11:01:40;17.10;99.90
55173;DHT22;41061;52.822;6.860;2022-10-16T11:09:48;16.90;99.90
55173;DHT22;41061;52.822;6.860;2022-10-16T11:12:27;16.80;99.90
55173;DHT22;41061;52.822;6.860;2022-10-16T11:15:18;16.90;99.90
55173;DHT22;41061;52.822;6.860;2022-10-16T11:17:49;17.00;99.90
55173;DHT22;41061;52.822;6.860;2022-10-16T11:20:23;17.10;99.90
55173;DHT22;41061;52.822;6.860;2022-10-16T11:25:20;17.50;99.90
55173;DHT22;41061;52.822;6.860;2022-10-16T11:28:38;17.50;99.90
55173;DHT22;41061;52.822;6.860;2022-10-16T11:31:44;17.50;99.90
55173;DHT22;41061;52.822;6.860;2022-10-16T11:36:53;17.80;99.90
55173;DHT22;41061;52.822;6.860;2022-10-16T11:39:27;17.90;99.90
55173;DHT22;41061;52.822;6.860;2022-10-16T11:42:07;17.70;99.90
55173;DHT22;41061;52.822;6.860;2022-10-16T11:49:50;17.10;99.90
55173;DHT22;41061;52.822;6.860;2022-10-16T11:52:33;17.20;99.90
55173;DHT22;41061;52.822;6.860;2022-10-16T11:55:15;17.00;99.90
55173;DHT22;41061;52.822;6.860;2022-10-16T11:57:49;17.30;99.90
55173;DHT22;41061;52.822;6.860;2022-10-16T12:00:57;17.40;99.90
55173;DHT22;41061;52.822;6.860;2022-10-16T12:03:40;17.50;99.90
55173;DHT22;41061;52.822;6.860;2022-10-16T12:09:02;17.40;99.90
55173;DHT22;41061;52.822;6.860;2022-10-16T12:17:01;17.10;99.90
55173;DHT22;41061;52.822;6.860;2022-10-16T12:19:27;16.80;99.90
55173;DHT22;41061;52.822;6.860;2022-10-16T12:21:56;16.90;99.90
55173;DHT22;41061;52.822;6.860;2022-10-16T12:24:31;16.80;99.90
55173;DHT22;41061;52.822;6.860;2022-10-16T12:26:57;16.70;99.90
55173;DHT22;41061;52.822;6.860;2022-10-16T12:29:28;16.80;99.90
55173;DHT22;41061;52.822;6.860;2022-10-16T12:31:55;17.10;99.90
55173;DHT22;41061;52.822;6.860;2022-10-16T12:34:42;17.10;99.90
55173;DHT22;41061;52.822;6.860;2022-10-16T12:37:32;17.00;99.90
55173;DHT22;41061;52.822;6.860;2022-10-16T12:39:59;17.20;99.90
55173;DHT22;41061;52.822;6.860;2022-10-16T12:42:36;17.50;99.90
55173;DHT22;41061;52.822;6.860;2022-10-16T12:45:23;17.90;99.90
55173;DHT22;41061;52.822;6.860;2022-10-16T12:47:52;17.70;99.90
55173;DHT22;41061;52.822;6.860;2022-10-16T12:50:45;17.80;99.90
55173;DHT22;41061;52.822;6.860;2022-10-16T12:53:23;17.70;99.90
55173;DHT22;41061;52.822;6.860;2022-10-16T12:59:12;17.90;99.90
55173;DHT22;41061;52.822;6.860;2022-10-16T13:05:12;18.00;99.90
55173;DHT22;41061;52.822;6.860;2022-10-16T13:16:08;18.20;99.90
55173;DHT22;41061;52.822;6.860;2022-10-16T13:24:19;18.10;99.90
55173;DHT22;41061;52.822;6.860;2022-10-16T13:27:50;18.00;99.90
55173;DHT22;41061;52.822;6.860;2022-10-16T13:29:53;17.80;99.90
55173;DHT22;41061;52.822;6.860;2022-10-16T13:32:21;17.60;99.90
55173;DHT22;41061;52.822;6.860;2022-10-16T13:34:48;17.40;99.90
55173;DHT22;41061;52.822;6.860;2022-10-16T13:37:25;17.40;99.90
55173;DHT22;41061;52.822;6.860;2022-10-16T13:39:50;17.40;99.90
55173;DHT22;41061;52.822;6.860;2022-10-16T13:42:28;17.30;99.90
55173;DHT22;41061;52.822;6.860;2022-10-16T13:44:55;17.30;99.90
55173;DHT22;41061;52.822;6.860;2022-10-16T13:47:27;17.50;99.90
55173;DHT22;41061;52.822;6.860;2022-10-16T13:50:06;17.40;99.90
55173;DHT22;41061;52.822;6.860;2022-10-16T13:52:32;17.60;99.90
55173;DHT22;41061;52.822;6.860;2022-10-16T13:54:58;17.50;99.90
55173;DHT22;41061;52.822;6.860;2022-10-16T13:57:24;17.30;99.90
55173;DHT22;41061;52.822;6.860;2022-10-16T13:59:50;17.50;99.90
55173;DHT22;41061;52.822;6.860;2022-10-16T14:02:36;17.20;99.90
55173;DHT22;41061;52.822;6.860;2022-10-16T14:05:04;17.10;99.90
55173;DHT22;41061;52.822;6.860;2022-10-16T14:07:34;17.10;99.90
55173;DHT22;41061;52.822;6.860;2022-10-16T14:10:06;17.30;99.90
55173;DHT22;41061;52.822;6.860;2022-10-16T14:12:33;17.10;99.90
55173;DHT22;41061;52.822;6.860;2022-10-16T14:14:59;17.00;99.90
55173;DHT22;41061;52.822;6.860;2022-10-16T14:17:28;17.10;99.90
55173;DHT22;41061;52.822;6.860;2022-10-16T14:19:57;17.00;99.90
55173;DHT22;41061;52.822;6.860;2022-10-16T14:22:33;16.80;99.90
55173;DHT22;41061;52.822;6.860;2022-10-16T14:24:59;16.80;99.90
55173;DHT22;41061;52.822;6.860;2022-10-16T14:27:36;16.90;99.90
55173;DHT22;41061;52.822;6.860;2022-10-16T14:30:16;16.80;99.90
55173;DHT22;41061;52.822;6.860;2022-10-16T14:32:53;16.70;99.90
55173;DHT22;41061;52.822;6.860;2022-10-16T14:35:25;16.80;99.90
55173;DHT22;41061;52.822;6.860;2022-10-16T14:37:52;16.80;99.90
55173;DHT22;41061;52.822;6.860;2022-10-16T14:40:18;16.80;99.90
55173;DHT22;41061;52.822;6.860;2022-10-16T14:42:46;16.60;99.90
55173;DHT22;41061;52.822;6.860;2022-10-16T14:45:11;16.60;99.90
55173;DHT22;41061;52.822;6.860;2022-10-16T14:47:49;16.60;99.90
55173;DHT22;41061;52.822;6.860;2022-10-16T14:50:15;16.60;99.90
55173;DHT22;41061;52.822;6.860;2022-10-16T14:52:41;16.60;99.90
55173;DHT22;41061;52.822;6.860;2022-10-16T14:55:09;16.50;99.90
55173;DHT22;41061;52.822;6.860;2022-10-16T14:57:37;16.60;99.90
55173;DHT22;41061;52.822;6.860;2022-10-16T15:00:16;16.50;99.90
55173;DHT22;41061;52.822;6.860;2022-10-16T15:02:42;16.60;99.90
55173;DHT22;41061;52.822;6.860;2022-10-16T15:05:20;16.60;99.90
55173;DHT22;41061;52.822;6.860;2022-10-16T15:07:47;16.50;99.90
55173;DHT22;41061;52.822;6.860;2022-10-16T15:10:16;16.50;99.90
55173;DHT22;41061;52.822;6.860;2022-10-16T15:12:42;16.60;99.90
55173;DHT22;41061;52.822;6.860;2022-10-16T15:17:57;16.40;99.90
55173;DHT22;41061;52.822;6.860;2022-10-16T15:20:34;16.60;99.90
55173;DHT22;41061;52.822;6.860;2022-10-16T15:23:05;16.60;99.90
55173;DHT22;41061;52.822;6.860;2022-10-16T15:25:44;16.50;99.90
55173;DHT22;41061;52.822;6.860;2022-10-16T15:28:11;16.40;99.90
55173;DHT22;41061;52.822;6.860;2022-10-16T15:30:37;16.60;99.90
55173;DHT22;41061;52.822;6.860;2022-10-16T15:33:04;16.40;99.90
55173;DHT22;41061;52.822;6.860;2022-10-16T15:35:30;16.40;99.90
55173;DHT22;41061;52.822;6.860;2022-10-16T15:37:57;16.30;99.90
55173;DHT22;41061;52.822;6.860;2022-10-16T15:40:23;16.30;99.90
55173;DHT22;41061;52.822;6.860;2022-10-16T15:42:49;16.30;99.90
55173;DHT22;41061;52.822;6.860;2022-10-16T15:45:15;16.20;99.90
55173;DHT22;41061;52.822;6.860;2022-10-16T15:47:42;16.20;99.90
55173;DHT22;41061;52.822;6.860;2022-10-16T15:50:10;16.20;99.90
55173;DHT22;41061;52.822;6.860;2022-10-16T15:52:36;16.10;99.90
55173;DHT22;41061;52.822;6.860;2022-10-16T15:55:08;16.20;99.90
55173;DHT22;41061;52.822;6.860;2022-10-16T15:57:34;16.10;99.90
55173;DHT22;41061;52.822;6.860;2022-10-16T16:00:00;16.00;99.90
55173;DHT22;41061;52.822;6.860;2022-10-16T16:02:26;15.90;99.90
55173;DHT22;41061;52.822;6.860;2022-10-16T16:04:51;15.90;99.90
55173;DHT22;41061;52.822;6.860;2022-10-16T16:07:17;15.80;99.90
55173;DHT22;41061;52.822;6.860;2022-10-16T16:09:43;15.90;99.90
55173;DHT22;41061;52.822;6.860;2022-10-16T16:12:10;15.70;99.90
55173;DHT22;41061;52.822;6.860;2022-10-16T16:14:36;15.50;99.90
55173;DHT22;41061;52.822;6.860;2022-10-16T16:17:02;15.60;99.90
55173;DHT22;41061;52.822;6.860;2022-10-16T16:19:27;15.40;99.90
55173;DHT22;41061;52.822;6.860;2022-10-16T16:21:53;15.50;99.90
55173;DHT22;41061;52.822;6.860;2022-10-16T16:24:19;15.30;99.90
55173;DHT22;41061;52.822;6.860;2022-10-16T16:26:45;15.20;99.90
55173;DHT22;41061;52.822;6.860;2022-10-16T16:29:14;15.20;99.90
55173;DHT22;41061;52.822;6.860;2022-10-16T16:31:41;15.10;99.90
55173;DHT22;41061;52.822;6.860;2022-10-16T16:34:09;15.00;99.90
55173;DHT22;41061;52.822;6.860;2022-10-16T16:36:36;15.10;99.90
55173;DHT22;41061;52.822;6.860;2022-10-16T16:39:02;14.90;99.90
55173;DHT22;41061;52.822;6.860;2022-10-16T16:41:29;15.00;99.90
55173;DHT22;41061;52.822;6.860;2022-10-16T16:43:55;15.10;99.90
55173;DHT22;41061;52.822;6.860;2022-10-16T16:46:21;14.70;99.90
55173;DHT22;41061;52.822;6.860;2022-10-16T17:03:33;14.30;99.90
55173;DHT22;41061;52.822;6.860;2022-10-16T17:08:26;14.00;99.90
55173;DHT22;41061;52.822;6.860;2022-10-16T17:10:52;13.90;99.90
55173;DHT22;41061;52.822;6.860;2022-10-16T17:13:23;13.80;99.90
55173;DHT22;41061;52.822;6.860;2022-10-16T17:15:50;13.80;99.90
55173;DHT22;41061;52.822;6.860;2022-10-16T17:18:16;13.80;99.90
55173;DHT22;41061;52.822;6.860;2022-10-16T17:20:42;13.80;99.90
55173;DHT22;41061;52.822;6.860;2022-10-16T17:23:09;13.80;99.90
55173;DHT22;41061;52.822;6.860;2022-10-16T17:25:37;13.80;99.90
55173;DHT22;41061;52.822;6.860;2022-10-16T17:28:03;13.70;99.90
55173;DHT22;41061;52.822;6.860;2022-10-16T17:30:28;13.90;99.90
55173;DHT22;41061;52.822;6.860;2022-10-16T17:32:54;13.70;99.90
55173;DHT22;41061;52.822;6.860;2022-10-16T17:35:20;13.70;99.90
55173;DHT22;41061;52.822;6.860;2022-10-16T17:37:46;13.60;99.90
55173;DHT22;41061;52.822;6.860;2022-10-16T17:40:12;13.50;99.90
55173;DHT22;41061;52.822;6.860;2022-10-16T17:42:38;13.30;99.90
55173;DHT22;41061;52.822;6.860;2022-10-16T17:45:04;13.30;99.90
55173;DHT22;41061;52.822;6.860;2022-10-16T17:47:30;13.30;99.90
55173;DHT22;41061;52.822;6.860;2022-10-16T17:49:55;13.30;99.90
55173;DHT22;41061;52.822;6.860;2022-10-16T17:52:23;13.20;99.90
55173;DHT22;41061;52.822;6.860;2022-10-16T17:54:52;13.20;99.90
55173;DHT22;41061;52.822;6.860;2022-10-16T17:57:17;13.20;99.90
55173;DHT22;41061;52.822;6.860;2022-10-16T17:59:43;13.10;99.90
55173;DHT22;41061;52.822;6.860;2022-10-16T18:02:10;13.10;99.90
55173;DHT22;41061;52.822;6.860;2022-10-16T18:07:04;13.00;99.90
55173;DHT22;41061;52.822;6.860;2022-10-16T18:09:30;13.00;99.90
55173;DHT22;41061;52.822;6.860;2022-10-16T18:11:55;12.90;99.90
55173;DHT22;41061;52.822;6.860;2022-10-16T18:14:26;13.00;99.90
55173;DHT22;41061;52.822;6.860;2022-10-16T18:16:53;12.90;99.90
55173;DHT22;41061;52.822;6.860;2022-10-16T18:19:20;12.90;99.90
55173;DHT22;41061;52.822;6.860;2022-10-16T18:21:46;12.90;99.90
55173;DHT22;41061;52.822;6.860;2022-10-16T18:24:14;12.90;99.90
55173;DHT22;41061;52.822;6.860;2022-10-16T18:26:40;12.80;99.90
55173;DHT22;41061;52.822;6.860;2022-10-16T18:29:06;12.70;99.90
55173;DHT22;41061;52.822;6.860;2022-10-16T18:31:33;12.70;99.90